Aviation Digital Data Service (ADDS)

Output produced by METARs form (0918 UTC 17 November 2018)
found at http://www.aviationweather.gov/metar/data/
 
GBYD 170900Z 32005KT CAVOK 23/15 Q1013
TAF GBYD 170530Z 1706/1812 34007KT CAVOK